Time;durP1;ratioP1;P1;durP2;ratioP2;P2;SDS_P1;SDS_P2;PMS_P1;PMS_P2;Temp;Humidity;BMP_temperature;BMP_pressure;BME280_temperature;BME280_humidity;BME280_pressure;Samples;Min_cycle;Max_cycle;Signal;HPM_P1;HPM_P2
2023/12/19 00:01:51;;;;;;;14.40;10.13;;;-1.70;99.90;;;;;;5077599;28;20292;-80
2023/12/19 00:04:18;;;;;;;16.33;12.13;;;-1.90;99.90;;;;;;5068553;28;20527;-80
2023/12/19 00:06:45;;;;;;;15.80;11.32;;;-1.90;99.90;;;;;;5069286;28;20630;-81
2023/12/19 00:09:13;;;;;;;15.40;10.13;;;-2.00;99.90;;;;;;5079223;28;20240;-82
2023/12/19 00:11:40;;;;;;;18.83;11.43;;;-2.00;99.90;;;;;;5079101;28;20462;-82
2023/12/19 00:14:08;;;;;;;13.57;10.68;;;-1.80;99.90;;;;;;5076619;28;21135;-79
2023/12/19 00:16:37;;;;;;;13.15;9.60;;;-1.80;99.90;;;;;;5069320;28;20215;-80
2023/12/19 00:19:07;;;;;;;14.27;9.27;;;-1.80;99.90;;;;;;5072996;28;20194;-80
2023/12/19 00:21:34;;;;;;;14.53;11.87;;;-1.70;99.90;;;;;;5065321;28;20545;-80
2023/12/19 00:24:01;;;;;;;14.35;11.20;;;-1.60;99.90;;;;;;5063249;28;20447;-80
2023/12/19 00:26:28;;;;;;;13.55;10.68;;;-1.80;99.90;;;;;;5075144;28;20207;-80
2023/12/19 00:28:55;;;;;;;11.90;10.65;;;-2.10;99.90;;;;;;5071683;28;20222;-80
2023/12/19 00:31:23;;;;;;;12.88;11.55;;;-2.20;99.90;;;;;;5069649;28;20255;-80
2023/12/19 00:33:50;;;;;;;14.35;10.85;;;-2.30;99.90;;;;;;5068068;28;20220;-80
2023/12/19 00:36:22;;;;;;;11.38;10.00;;;-2.40;99.90;;;;;;5073920;28;20559;-80
2023/12/19 00:38:49;;;;;;;15.43;12.63;;;-2.50;99.90;;;;;;5069833;28;20261;-80
2023/12/19 00:41:17;;;;;;;16.17;12.75;;;-2.50;99.90;;;;;;5062829;28;20215;-80
2023/12/19 00:43:44;;;;;;;21.60;10.60;;;-2.60;99.90;;;;;;5067864;28;20266;-80
2023/12/19 00:46:12;;;;;;;16.50;10.60;;;-2.70;99.90;;;;;;5070951;28;20257;-80
2023/12/19 00:48:40;;;;;;;17.67;10.00;;;-2.70;99.90;;;;;;5085772;28;20231;-80
2023/12/19 00:51:10;;;;;;;11.50;8.20;;;-2.40;99.90;;;;;;5063162;28;20228;-80
2023/12/19 00:53:37;;;;;;;7.80;5.97;;;-2.20;99.90;;;;;;5072291;28;20241;-80
2023/12/19 00:56:08;;;;;;;6.50;4.47;;;-2.00;99.90;;;;;;5067752;28;20295;-80
2023/12/19 00:58:36;;;;;;;6.95;5.78;;;-1.90;99.90;;;;;;5081122;28;20273;-80
2023/12/19 01:01:03;;;;;;;12.27;7.30;;;-1.70;99.90;;;;;;5076925;28;20734;-79
2023/12/19 01:03:30;;;;;;;14.57;10.40;;;-1.60;99.90;;;;;;5061768;28;20461;-80
2023/12/19 01:05:59;;;;;;;10.53;9.53;;;-1.70;99.90;;;;;;5080052;28;20457;-80
2023/12/19 01:08:26;;;;;;;8.00;6.90;;;-1.80;99.90;;;;;;5080591;28;20498;-81
2023/12/19 01:10:54;;;;;;;10.68;8.43;;;-1.80;99.90;;;;;;5081292;28;20453;-80
2023/12/19 01:13:23;;;;;;;7.82;6.68;;;-1.90;99.90;;;;;;5072374;28;20273;-81
2023/12/19 01:15:50;;;;;;;8.90;8.00;;;-1.80;99.90;;;;;;5068589;28;20209;-81
2023/12/19 01:18:17;;;;;;;7.47;6.17;;;-1.90;99.90;;;;;;5084654;28;20554;-80
2023/12/19 01:20:47;;;;;;;5.00;4.37;;;-1.90;99.90;;;;;;5068308;28;20454;-80
2023/12/19 01:23:16;;;;;;;7.10;5.97;;;-1.80;99.90;;;;;;5084938;28;20447;-81
2023/12/19 01:25:43;;;;;;;6.07;4.53;;;-1.80;99.90;;;;;;5066421;28;20863;-81
2023/12/19 01:28:11;;;;;;;8.82;7.95;;;-1.90;99.90;;;;;;5081072;28;20221;-81
2023/12/19 01:30:38;;;;;;;13.60;10.80;;;-2.00;99.90;;;;;;5086015;28;20216;-80
2023/12/19 01:33:05;;;;;;;14.00;11.33;;;-2.30;99.90;;;;;;5071248;28;20579;-81
2023/12/19 01:35:32;;;;;;;13.02;11.73;;;-2.30;99.90;;;;;;5068692;28;20446;-81
2023/12/19 01:37:59;;;;;;;10.85;9.68;;;-2.50;99.90;;;;;;5081953;28;20617;-81
2023/12/19 01:40:31;;;;;;;10.77;8.68;;;-2.60;99.90;;;;;;5072278;28;20439;-81
2023/12/19 01:42:58;;;;;;;11.38;9.88;;;-2.70;99.90;;;;;;5066734;28;20207;-81
2023/12/19 01:45:27;;;;;;;12.90;9.80;;;-2.70;99.90;;;;;;5069137;28;20216;-80
2023/12/19 01:47:54;;;;;;;12.00;10.55;;;-2.80;99.90;;;;;;5066361;28;20256;-81
2023/12/19 01:50:22;;;;;;;12.50;9.60;;;-2.90;99.90;;;;;;5068605;28;20215;-81
2023/12/19 01:52:51;;;;;;;10.75;9.60;;;-2.90;99.90;;;;;;5072844;28;20209;-81
2023/12/19 01:55:20;;;;;;;6.43;5.90;;;-2.90;99.90;;;;;;5068182;28;20623;-81
2023/12/19 01:57:49;;;;;;;6.87;6.17;;;-2.70;99.90;;;;;;5073333;28;20276;-81
2023/12/19 02:00:17;;;;;;;5.93;5.33;;;-2.60;99.90;;;;;;5076602;28;20439;-81
2023/12/19 02:02:45;;;;;;;6.80;6.10;;;-2.50;99.90;;;;;;5069581;28;20971;-81
2023/12/19 02:05:12;;;;;;;6.30;5.65;;;-2.40;99.90;;;;;;5079241;28;20474;-81
2023/12/19 02:07:39;;;;;;;6.15;4.60;;;-2.30;99.90;;;;;;5079640;28;20211;-81
2023/12/19 02:10:07;;;;;;;7.20;5.75;;;-2.40;99.90;;;;;;5084669;28;20282;-81
2023/12/19 02:12:35;;;;;;;10.65;8.07;;;-2.30;99.90;;;;;;5066867;28;20856;-81
2023/12/19 02:15:04;;;;;;;21.45;10.88;;;-2.30;99.90;;;;;;5065161;28;20200;-81
2023/12/19 02:17:31;;;;;;;30.20;15.85;;;-2.80;99.90;;;;;;5079513;28;20649;-81
2023/12/19 02:19:59;;;;;;;31.63;14.02;;;-3.00;99.90;;;;;;5075671;28;20201;-81
2023/12/19 02:22:29;;;;;;;27.98;15.77;;;-3.00;99.90;;;;;;5070566;28;20205;-80
2023/12/19 02:24:58;;;;;;;39.75;17.55;;;-2.90;99.90;;;;;;5077705;28;20609;-81
2023/12/19 02:27:26;;;;;;;51.22;20.48;;;-2.80;99.90;;;;;;5069178;28;20278;-81
2023/12/19 02:29:53;;;;;;;47.13;18.02;;;-2.80;99.90;;;;;;5083811;28;20275;-81
2023/12/19 02:32:20;;;;;;;51.03;21.70;;;-2.80;99.90;;;;;;5070892;28;20209;-81
2023/12/19 02:34:48;;;;;;;66.93;21.70;;;-2.70;99.90;;;;;;5067687;28;20813;-81
2023/12/19 02:37:15;;;;;;;48.00;18.98;;;-2.70;99.90;;;;;;5075449;28;20210;-81
2023/12/19 02:39:42;;;;;;;35.88;17.50;;;-2.60;99.90;;;;;;5066066;28;20254;-81
2023/12/19 02:42:10;;;;;;;34.88;15.43;;;-2.60;99.90;;;;;;5070545;28;20273;-81
2023/12/19 02:44:37;;;;;;;19.80;12.95;;;-2.50;99.90;;;;;;5071198;28;20207;-81
2023/12/19 02:47:04;;;;;;;42.90;17.25;;;-2.50;99.90;;;;;;5074630;28;20219;-81
2023/12/19 02:49:31;;;;;;;25.30;15.20;;;-2.50;99.90;;;;;;5062760;28;20221;-81
2023/12/19 02:51:58;;;;;;;23.00;15.07;;;-2.40;99.90;;;;;;5070656;28;20545;-81
2023/12/19 02:54:25;;;;;;;25.02;15.93;;;-2.50;99.90;;;;;;5064449;28;20377;-81
2023/12/19 02:56:52;;;;;;;30.95;16.80;;;-2.60;99.90;;;;;;5073372;28;20226;-81
2023/12/19 02:59:21;;;;;;;17.02;13.65;;;-2.60;99.90;;;;;;5078183;28;20642;-81
2023/12/19 03:01:48;;;;;;;26.17;15.85;;;-2.50;99.90;;;;;;5076966;28;20771;-81
2023/12/19 03:04:15;;;;;;;21.67;15.60;;;-2.60;99.90;;;;;;5085021;28;20238;-81
2023/12/19 03:06:42;;;;;;;28.73;16.60;;;-2.60;99.90;;;;;;5076146;28;20290;-79
2023/12/19 03:09:09;;;;;;;24.27;16.25;;;-2.80;99.90;;;;;;5081735;28;20406;-79
2023/12/19 03:11:38;;;;;;;47.10;18.58;;;-3.00;99.90;;;;;;5068805;28;20638;-79
2023/12/19 03:14:05;;;;;;;29.38;14.15;;;-3.10;99.90;;;;;;5082904;28;20240;-80
2023/12/19 03:16:33;;;;;;;32.38;13.32;;;-3.00;99.90;;;;;;5076665;28;20202;-80
2023/12/19 03:19:00;;;;;;;16.15;10.98;;;-3.10;99.90;;;;;;5079118;28;20198;-80
2023/12/19 03:21:28;;;;;;;13.10;9.63;;;-3.20;99.90;;;;;;5072253;28;20212;-80
2023/12/19 03:23:55;;;;;;;12.80;11.30;;;-3.20;99.90;;;;;;5069940;28;20280;-80
2023/12/19 03:26:22;;;;;;;16.58;13.40;;;-3.20;99.90;;;;;;5068953;28;20205;-79
2023/12/19 03:28:49;;;;;;;49.55;20.15;;;-3.30;99.90;;;;;;5066285;28;20324;-79
2023/12/19 03:31:15;;;;;;;30.13;14.00;;;-3.30;99.90;;;;;;5071741;28;20214;-80
2023/12/19 03:33:43;;;;;;;23.13;13.17;;;-3.20;99.90;;;;;;5062467;28;20695;-79
2023/12/19 03:36:10;;;;;;;37.13;13.30;;;-3.20;99.90;;;;;;5072134;28;20526;-81
2023/12/19 03:38:37;;;;;;;37.00;15.60;;;-3.20;99.90;;;;;;5078635;28;20286;-80
2023/12/19 03:41:04;;;;;;;35.60;15.95;;;-3.20;99.90;;;;;;5075039;28;20197;-80
2023/12/19 03:43:32;;;;;;;33.15;14.20;;;-3.10;99.90;;;;;;5078217;28;20210;-80
2023/12/19 03:46:01;;;;;;;28.83;14.77;;;-3.20;99.90;;;;;;5064422;28;20222;-79
2023/12/19 03:48:28;;;;;;;24.73;12.65;;;-3.10;99.90;;;;;;5063789;28;20261;-80
2023/12/19 03:50:56;;;;;;;23.83;12.38;;;-3.10;99.90;;;;;;5079347;28;20212;-80
2023/12/19 03:53:24;;;;;;;14.73;10.80;;;-3.10;99.90;;;;;;5076767;28;20211;-80
2023/12/19 03:55:51;;;;;;;16.33;11.68;;;-3.10;99.90;;;;;;5067353;28;20631;-79
2023/12/19 03:58:18;;;;;;;12.23;10.60;;;-3.20;99.90;;;;;;5070060;28;20206;-80
2023/12/19 04:00:44;;;;;;;12.95;9.68;;;-3.20;99.90;;;;;;5068047;28;20196;-79
2023/12/19 04:03:11;;;;;;;10.07;9.07;;;-3.30;99.90;;;;;;5081741;28;20593;-79
2023/12/19 04:05:38;;;;;;;12.93;8.95;;;-3.30;99.90;;;;;;5075895;28;20211;-79
2023/12/19 04:08:07;;;;;;;17.15;11.80;;;-3.40;99.90;;;;;;5071852;28;20722;-80
2023/12/19 04:10:34;;;;;;;20.10;10.90;;;-3.40;99.90;;;;;;5076378;28;20634;-81
2023/12/19 04:13:01;;;;;;;15.43;10.63;;;-3.40;99.90;;;;;;5076721;28;20209;-80
2023/12/19 04:15:30;;;;;;;15.77;12.25;;;-3.50;99.90;;;;;;5071188;28;20373;-80
2023/12/19 04:17:57;;;;;;;26.08;13.88;;;-3.50;99.90;;;;;;5084304;28;20550;-80
2023/12/19 04:20:23;;;;;;;17.13;12.15;;;-3.50;99.90;;;;;;5069059;28;20611;-80
2023/12/19 04:22:50;;;;;;;21.73;12.27;;;-3.50;99.90;;;;;;5064730;28;20838;-80
2023/12/19 04:25:19;;;;;;;12.80;11.00;;;-3.40;99.90;;;;;;5074663;28;20775;-79
2023/12/19 04:27:46;;;;;;;26.05;14.02;;;-3.40;99.90;;;;;;5080286;28;20532;-80
2023/12/19 04:30:13;;;;;;;20.52;12.98;;;-3.40;99.90;;;;;;5064410;28;20219;-79
2023/12/19 04:32:40;;;;;;;18.85;12.48;;;-3.40;99.90;;;;;;5075866;28;20216;-79
2023/12/19 04:35:08;;;;;;;15.95;10.82;;;-3.40;99.90;;;;;;5076284;28;20199;-79
2023/12/19 04:37:35;;;;;;;19.15;13.00;;;-3.50;99.90;;;;;;5073790;28;20211;-79
2023/12/19 04:40:03;;;;;;;20.00;13.68;;;-3.50;99.90;;;;;;5075365;28;20632;-80
2023/12/19 04:42:32;;;;;;;18.15;14.40;;;-3.50;99.90;;;;;;5073502;28;20234;-80
2023/12/19 04:44:59;;;;;;;17.95;11.77;;;-3.60;99.90;;;;;;5066600;28;20881;-79
2023/12/19 04:47:26;;;;;;;18.83;12.38;;;-3.60;99.90;;;;;;5063057;28;20290;-79
2023/12/19 04:49:53;;;;;;;18.00;12.35;;;-3.70;99.90;;;;;;5075225;28;20227;-80
2023/12/19 04:52:20;;;;;;;9.82;8.50;;;-3.90;99.90;;;;;;5074397;28;20213;-80
2023/12/19 04:54:47;;;;;;;11.55;8.10;;;-3.80;99.90;;;;;;5082476;28;20258;-80
2023/12/19 04:57:14;;;;;;;10.50;7.28;;;-3.70;99.90;;;;;;5071510;28;20229;-80
2023/12/19 04:59:42;;;;;;;9.55;7.20;;;-3.50;99.90;;;;;;5080750;28;20213;-79
2023/12/19 05:02:10;;;;;;;9.20;7.78;;;-3.30;99.90;;;;;;5070786;28;20206;-80
2023/12/19 05:04:37;;;;;;;6.78;6.00;;;-3.00;99.90;;;;;;5070158;28;20202;-80
2023/12/19 05:07:04;;;;;;;6.20;5.53;;;-2.90;99.90;;;;;;5076575;28;20606;-80
2023/12/19 05:09:31;;;;;;;5.50;5.03;;;-2.90;99.90;;;;;;5076444;28;20667;-80
2023/12/19 05:11:58;;;;;;;7.70;6.57;;;-2.90;99.90;;;;;;5066908;28;20507;-80
2023/12/19 05:14:25;;;;;;;11.20;7.22;;;-2.80;99.90;;;;;;5072890;28;20267;-80
2023/12/19 05:16:53;;;;;;;11.20;6.63;;;-2.60;99.90;;;;;;5064825;28;20208;-81
2023/12/19 05:19:20;;;;;;;12.43;9.90;;;-2.60;99.90;;;;;;5074582;28;20209;-80
2023/12/19 05:21:47;;;;;;;9.88;8.88;;;-2.60;99.90;;;;;;5061933;28;20598;-80
2023/12/19 05:24:15;;;;;;;15.45;9.93;;;-2.70;99.90;;;;;;5067788;28;20540;-80
2023/12/19 05:26:41;;;;;;;13.40;10.48;;;-2.80;99.90;;;;;;5073059;28;20561;-80
2023/12/19 05:29:08;;;;;;;17.23;11.20;;;-2.90;99.90;;;;;;5064050;28;20271;-80
2023/12/19 05:31:35;;;;;;;30.20;13.27;;;-2.90;99.90;;;;;;5065954;28;20633;-80
2023/12/19 05:34:04;;;;;;;18.08;13.10;;;-2.90;99.90;;;;;;5069185;28;20211;-80
2023/12/19 05:36:34;;;;;;;26.05;15.18;;;-3.00;99.90;;;;;;5064689;28;20543;-81
2023/12/19 05:39:00;;;;;;;26.52;15.32;;;-3.00;99.90;;;;;;5069792;28;20661;-80
2023/12/19 05:41:27;;;;;;;29.63;13.52;;;-3.10;99.90;;;;;;5077224;28;20211;-81
2023/12/19 05:43:59;;;;;;;28.88;15.95;;;-3.10;99.90;;;;;;5060703;28;20207;-81
2023/12/19 05:46:27;;;;;;;22.63;12.50;;;-3.10;99.90;;;;;;5071342;28;20207;-82
2023/12/19 05:48:54;;;;;;;20.95;13.05;;;-3.00;99.90;;;;;;5072331;28;20862;-81
2023/12/19 05:51:22;;;;;;;14.38;9.60;;;-3.00;99.90;;;;;;5064013;28;20686;-81
2023/12/19 05:53:49;;;;;;;29.17;13.10;;;-2.90;99.90;;;;;;5065784;28;20273;-81
2023/12/19 05:56:16;;;;;;;25.98;13.88;;;-2.90;99.90;;;;;;5067690;28;20798;-81
2023/12/19 05:58:44;;;;;;;18.30;11.40;;;-3.00;99.90;;;;;;5076171;28;20285;-81
2023/12/19 06:01:11;;;;;;;31.80;11.38;;;-3.10;99.90;;;;;;5068907;28;20208;-81
2023/12/19 06:03:38;;;;;;;33.50;13.20;;;-3.10;99.90;;;;;;5067561;28;20204;-81
2023/12/19 06:06:05;;;;;;;27.33;12.55;;;-3.00;99.90;;;;;;5069835;28;20635;-82
2023/12/19 06:08:35;;;;;;;27.95;12.20;;;-3.00;99.90;;;;;;5066428;28;20696;-82
2023/12/19 06:11:02;;;;;;;14.80;9.77;;;-3.00;99.90;;;;;;5061677;28;20703;-81
2023/12/19 06:13:29;;;;;;;21.63;10.60;;;-3.00;99.90;;;;;;5074670;28;20207;-82
2023/12/19 06:15:56;;;;;;;17.20;11.68;;;-3.00;99.90;;;;;;5080692;28;20243;-82
2023/12/19 06:18:23;;;;;;;24.58;12.90;;;-3.00;99.90;;;;;;5085262;28;20200;-81
2023/12/19 06:20:50;;;;;;;20.17;11.10;;;-2.90;99.90;;;;;;5079840;28;20200;-81
2023/12/19 06:23:17;;;;;;;31.60;14.43;;;-2.80;99.90;;;;;;5068538;28;20211;-81
2023/12/19 06:25:45;;;;;;;32.53;14.43;;;-2.90;99.90;;;;;;5072985;28;20272;-81
2023/12/19 06:28:14;;;;;;;25.50;14.60;;;-2.90;99.90;;;;;;5069658;28;20211;-82
2023/12/19 06:30:41;;;;;;;26.05;12.75;;;-2.90;99.90;;;;;;5068309;28;20227;-82
2023/12/19 06:33:08;;;;;;;19.70;13.00;;;-2.90;99.90;;;;;;5078141;28;20211;-81
2023/12/19 06:35:39;;;;;;;18.55;12.20;;;-2.90;99.90;;;;;;5074528;28;20623;-81
2023/12/19 06:38:06;;;;;;;14.80;10.07;;;-3.00;99.90;;;;;;5067208;28;20202;-81
2023/12/19 06:40:33;;;;;;;15.75;10.98;;;-3.00;99.90;;;;;;5070601;28;20192;-81
2023/12/19 06:43:03;;;;;;;15.27;11.27;;;-3.10;99.90;;;;;;5073597;28;20612;-81
2023/12/19 06:45:30;;;;;;;12.40;9.32;;;-3.10;99.90;;;;;;5064679;28;20206;-79
2023/12/19 06:47:57;;;;;;;12.45;10.13;;;-3.10;99.90;;;;;;5063681;28;20199;-79
2023/12/19 06:50:25;;;;;;;22.75;14.35;;;-3.10;99.90;;;;;;5064873;28;20371;-79
2023/12/19 06:52:53;;;;;;;24.02;12.40;;;-3.10;99.90;;;;;;5076395;28;20220;-79
2023/12/19 06:55:21;;;;;;;17.85;12.45;;;-3.10;99.90;;;;;;5074098;28;20702;-80
2023/12/19 06:57:48;;;;;;;17.30;11.27;;;-3.10;99.90;;;;;;5067015;28;20214;-80
2023/12/19 07:00:18;;;;;;;22.23;12.65;;;-3.10;99.90;;;;;;5071149;28;20304;-80
2023/12/19 07:02:45;;;;;;;17.05;11.38;;;-3.10;99.90;;;;;;5063928;28;20668;-80
2023/12/19 07:05:12;;;;;;;11.85;9.90;;;-3.10;99.90;;;;;;5080774;28;20537;-80
2023/12/19 07:07:39;;;;;;;13.98;11.40;;;-3.20;99.90;;;;;;5076731;28;20205;-81
2023/12/19 07:10:07;;;;;;;15.48;9.98;;;-3.20;99.90;;;;;;5070489;28;20229;-80
2023/12/19 07:12:34;;;;;;;11.88;9.77;;;-3.30;99.90;;;;;;5076549;28;20213;-80
2023/12/19 07:15:04;;;;;;;7.28;6.53;;;-3.30;99.90;;;;;;5076717;28;20786;-80
2023/12/19 07:17:32;;;;;;;11.88;8.27;;;-3.20;99.90;;;;;;5066203;28;20822;-80
2023/12/19 07:19:59;;;;;;;7.65;6.45;;;-2.90;99.90;;;;;;5073931;28;20260;-80
2023/12/19 07:22:26;;;;;;;8.73;6.25;;;-2.80;99.90;;;;;;5075231;28;20215;-80
2023/12/19 07:24:53;;;;;;;5.07;4.40;;;-2.40;99.90;;;;;;5066023;28;20267;-80
2023/12/19 07:27:20;;;;;;;4.78;4.03;;;-2.20;99.90;;;;;;5070351;28;20702;-80
2023/12/19 07:29:47;;;;;;;5.35;4.43;;;-2.00;99.90;;;;;;5063168;28;20209;-80
2023/12/19 07:32:14;;;;;;;5.95;3.83;;;-1.90;99.90;;;;;;5080423;28;20270;-80
2023/12/19 07:34:42;;;;;;;2.70;2.50;;;-1.70;99.90;;;;;;5069695;28;20219;-81
2023/12/19 07:37:09;;;;;;;5.57;5.03;;;-1.60;99.90;;;;;;5073630;28;20520;-79
2023/12/19 07:39:36;;;;;;;12.80;9.93;;;-1.40;99.90;;;;;;5093485;28;20205;-80
2023/12/19 07:42:03;;;;;;;9.85;8.98;;;-1.40;99.90;;;;;;5071681;28;20462;-80
2023/12/19 07:44:30;;;;;;;10.10;8.20;;;-1.40;99.90;;;;;;5075208;28;20230;-80
2023/12/19 07:46:58;;;;;;;9.15;7.68;;;-1.30;99.90;;;;;;5072328;28;20516;-80
2023/12/19 07:49:25;;;;;;;7.57;6.80;;;-1.20;99.90;;;;;;5067418;28;20291;-80
2023/12/19 07:51:53;;;;;;;11.88;9.50;;;-1.20;99.90;;;;;;5075607;28;20482;-80
2023/12/19 07:54:20;;;;;;;10.43;8.70;;;-1.20;99.90;;;;;;5085306;28;20208;-81
2023/12/19 07:56:47;;;;;;;13.18;10.57;;;-1.30;99.90;;;;;;5068734;28;20704;-81
2023/12/19 07:59:14;;;;;;;10.60;9.38;;;-1.20;99.90;;;;;;5069656;28;20208;-80
2023/12/19 08:01:42;;;;;;;12.65;10.10;;;-1.30;99.90;;;;;;5064563;28;20269;-81
2023/12/19 08:04:08;;;;;;;10.52;8.82;;;-1.20;99.90;;;;;;5082676;28;20724;-80
2023/12/19 08:06:35;;;;;;;8.27;6.82;;;-1.30;99.90;;;;;;5078402;28;20270;-80
2023/12/19 08:09:04;;;;;;;10.48;9.48;;;-1.20;99.90;;;;;;5078171;28;20208;-81
2023/12/19 08:11:31;;;;;;;9.95;7.90;;;-1.00;99.90;;;;;;5085768;28;20264;-81
2023/12/19 08:13:58;;;;;;;12.37;9.30;;;-1.00;99.90;;;;;;5073374;28;20213;-81
2023/12/19 08:16:25;;;;;;;13.00;9.97;;;-0.90;99.90;;;;;;5074393;28;20996;-80
2023/12/19 08:18:52;;;;;;;14.05;9.43;;;-0.90;99.90;;;;;;5072692;28;20466;-80
2023/12/19 08:21:19;;;;;;;12.80;9.73;;;-0.90;99.90;;;;;;5081202;28;20625;-82
2023/12/19 08:23:48;;;;;;;10.87;9.87;;;-0.90;99.90;;;;;;5071175;28;20475;-80
2023/12/19 08:26:16;;;;;;;13.00;11.80;;;-0.90;99.90;;;;;;5074922;28;20453;-80
2023/12/19 08:28:43;;;;;;;17.97;12.40;;;-0.90;99.90;;;;;;5071195;28;20443;-81
2023/12/19 08:31:10;;;;;;;17.07;13.50;;;-1.10;99.90;;;;;;5066125;28;20490;-80
2023/12/19 08:33:38;;;;;;;14.90;11.60;;;-1.20;99.90;;;;;;5082397;28;20454;-81
2023/12/19 08:36:06;;;;;;;12.50;11.30;;;-1.20;99.90;;;;;;5082688;28;20447;-80
2023/12/19 08:38:33;;;;;;;23.00;18.87;;;-1.20;99.90;;;;;;5082975;28;20458;-80
2023/12/19 08:41:00;;;;;;;21.83;18.10;;;-1.20;99.90;;;;;;5078833;28;20457;-80
2023/12/19 08:43:29;;;;;;;18.77;15.27;;;-0.80;99.90;;;;;;5070087;28;20532;-80
2023/12/19 08:45:56;;;;;;;20.60;16.03;;;-0.60;99.90;;;;;;5079995;28;20447;-80
2023/12/19 08:48:23;;;;;;;44.43;24.07;;;-0.40;99.90;;;;;;5069612;28;20452;-81
2023/12/19 08:50:50;;;;;;;61.53;30.90;;;-0.40;99.90;;;;;;5077715;28;20497;-81
2023/12/19 08:53:17;;;;;;;38.67;26.37;;;-0.50;99.90;;;;;;5078323;28;20694;-81
2023/12/19 08:55:46;;;;;;;65.40;25.40;;;-0.40;99.90;;;;;;5080749;28;21014;-80
2023/12/19 08:58:13;;;;;;;91.70;37.87;;;-0.50;99.90;;;;;;5082528;28;20454;-80
2023/12/19 09:00:42;;;;;;;65.07;24.80;;;-0.70;99.90;;;;;;5070173;28;20536;-80
2023/12/19 09:03:09;;;;;;;47.03;18.83;;;-0.90;99.90;;;;;;5077357;28;21196;-81
2023/12/19 09:05:36;;;;;;;58.17;24.47;;;-0.80;99.90;;;;;;5081891;28;20462;-80
2023/12/19 09:08:03;;;;;;;66.63;20.70;;;-1.00;99.90;;;;;;5080726;28;20440;-80
2023/12/19 09:10:30;;;;;;;48.83;20.10;;;-1.10;99.90;;;;;;5079117;28;20536;-80
2023/12/19 09:12:57;;;;;;;51.10;20.45;;;-1.40;99.90;;;;;;5079134;28;20468;-80
2023/12/19 09:15:24;;;;;;;62.17;19.13;;;-1.40;99.90;;;;;;5079171;28;20281;-80
2023/12/19 09:17:52;;;;;;;55.73;17.60;;;-1.40;99.90;;;;;;5078969;28;20465;-80
2023/12/19 09:20:21;;;;;;;38.13;18.95;;;-1.50;99.90;;;;;;5083177;28;20450;-80
2023/12/19 09:22:48;;;;;;;66.90;20.10;;;-1.20;99.90;;;;;;5078431;28;20214;-80
2023/12/19 09:25:15;;;;;;;96.10;24.73;;;-1.20;99.90;;;;;;5074074;28;20453;-80
2023/12/19 09:27:43;;;;;;;37.92;17.35;;;-1.20;99.90;;;;;;5084881;28;20211;-80
2023/12/19 09:30:11;;;;;;;32.05;15.57;;;-1.10;99.90;;;;;;5082364;28;20543;-80
2023/12/19 09:32:38;;;;;;;53.90;22.10;;;-1.00;99.90;;;;;;5074207;28;20366;-79
2023/12/19 09:35:10;;;;;;;46.08;20.80;;;-1.00;99.90;;;;;;5078847;28;20558;-80
2023/12/19 09:37:38;;;;;;;49.45;20.50;;;-0.90;99.90;;;;;;5075837;28;20829;-80
2023/12/19 09:40:07;;;;;;;36.72;20.13;;;-1.10;99.90;;;;;;5084551;28;20208;-80
2023/12/19 09:42:34;;;;;;;60.88;20.05;;;-0.90;99.90;;;;;;5074882;28;20198;-80
2023/12/19 09:45:01;;;;;;;48.58;23.63;;;-0.90;99.90;;;;;;5068523;28;20650;-80
2023/12/19 09:47:30;;;;;;;51.10;19.42;;;-0.90;99.90;;;;;;5069180;28;20200;-80
2023/12/19 09:49:58;;;;;;;24.10;15.70;;;-0.80;99.90;;;;;;5085814;28;20211;-81
2023/12/19 09:52:28;;;;;;;20.93;13.67;;;-0.70;99.90;;;;;;5081242;28;20519;-80
2023/12/19 09:54:56;;;;;;;22.40;16.60;;;-0.50;99.90;;;;;;5084134;28;20447;-82
2023/12/19 09:57:23;;;;;;;54.17;19.70;;;-0.40;99.90;;;;;;5086590;28;20470;-80
2023/12/19 09:59:54;;;;;;;29.40;15.93;;;-0.10;99.90;;;;;;5080980;28;20448;-81
2023/12/19 10:02:24;;;;;;;38.90;18.07;;;0.00;99.90;;;;;;5085114;28;20474;-81
2023/12/19 10:04:51;;;;;;;56.73;20.27;;;0.10;99.90;;;;;;5081305;28;20462;-81
2023/12/19 10:07:18;;;;;;;202.37;50.23;;;-0.10;99.90;;;;;;5085434;28;20535;-81
2023/12/19 10:09:54;;;;;;;124.70;36.33;;;-0.10;99.90;;;;;;5080613;28;20898;-81
2023/12/19 10:12:22;;;;;;;64.93;28.30;;;0.00;99.90;;;;;;5087684;28;20557;-81
2023/12/19 10:14:49;;;;;;;27.23;17.77;;;0.20;99.90;;;;;;5082436;28;20919;-81
2023/12/19 10:17:18;;;;;;;21.67;17.30;;;0.40;99.90;;;;;;5078560;28;20531;-80
2023/12/19 10:19:46;;;;;;;43.77;18.70;;;0.40;99.90;;;;;;5082835;28;20841;-81
2023/12/19 10:22:16;;;;;;;38.67;19.50;;;0.40;99.90;;;;;;5074479;28;20866;-80
2023/12/19 10:24:43;;;;;;;24.73;16.90;;;0.40;99.90;;;;;;5067047;28;20456;-81
2023/12/19 10:27:12;;;;;;;90.67;31.33;;;0.40;99.90;;;;;;5069974;28;20468;-81
2023/12/19 10:29:40;;;;;;;69.93;24.83;;;0.40;99.90;;;;;;5074117;28;20437;-81
2023/12/19 10:32:15;;;;;;;37.30;17.50;;;0.30;99.90;;;;;;5064218;28;20516;-81
2023/12/19 10:34:42;;;;;;;29.87;17.67;;;0.30;99.90;;;;;;5064732;28;20911;-81
2023/12/19 10:37:13;;;;;;;29.93;18.10;;;0.40;99.90;;;;;;5072367;28;20781;-81
2023/12/19 10:39:42;;;;;;;27.70;16.70;;;0.40;99.90;;;;;;5068655;28;20533;-82
2023/12/19 10:42:10;;;;;;;26.63;14.47;;;0.50;99.90;;;;;;5066343;28;20641;-82
2023/12/19 10:44:39;;;;;;;16.17;13.27;;;0.60;99.90;;;;;;5067766;28;21033;-83
2023/12/19 10:47:07;;;;;;;19.90;14.70;;;0.80;99.90;;;;;;5077878;28;20442;-83
2023/12/19 10:49:35;;;;;;;19.40;14.23;;;1.00;99.90;;;;;;5070354;28;21196;-83
2023/12/19 10:52:06;;;;;;;18.13;14.33;;;1.00;99.90;;;;;;5067827;28;20488;-83
2023/12/19 10:54:36;;;;;;;14.83;13.20;;;1.10;99.90;;;;;;5065781;28;20456;-82
2023/12/19 10:57:06;;;;;;;16.30;13.27;;;1.20;99.90;;;;;;5067088;28;20519;-82
2023/12/19 10:59:54;;;;;;;18.03;11.20;;;1.40;99.90;;;;;;5077962;28;20542;-81
2023/12/19 11:02:35;;;;;;;13.20;11.73;;;1.70;99.90;;;;;;5072182;28;20447;-81
2023/12/19 11:05:12;;;;;;;12.83;11.57;;;1.80;99.90;;;;;;5069282;28;20478;-81
2023/12/19 11:07:42;;;;;;;11.07;10.00;;;2.00;99.90;;;;;;5068845;28;20546;-81
2023/12/19 11:10:11;;;;;;;14.73;11.50;;;2.30;99.90;;;;;;5075455;28;20493;-81
2023/12/19 11:12:38;;;;;;;15.37;13.10;;;2.50;99.90;;;;;;5074113;28;20506;-81
2023/12/19 11:15:08;;;;;;;15.20;13.13;;;2.60;99.90;;;;;;5066474;28;20471;-81
2023/12/19 11:17:44;;;;;;;13.80;11.43;;;2.60;99.90;;;;;;5072779;28;20545;-81
2023/12/19 11:20:17;;;;;;;13.87;11.13;;;2.50;99.90;;;;;;5071070;28;20451;-81
2023/12/19 11:22:54;;;;;;;15.00;11.67;;;2.60;99.90;;;;;;5077659;28;21022;-81
2023/12/19 11:25:29;;;;;;;13.20;11.80;;;2.50;99.90;;;;;;5065941;28;20543;-81
2023/12/19 11:27:59;;;;;;;13.77;11.80;;;2.60;99.90;;;;;;5068965;28;20466;-81
2023/12/19 11:30:36;;;;;;;14.83;13.23;;;2.80;99.90;;;;;;5069842;28;20518;-81
2023/12/19 11:33:04;;;;;;;13.23;11.23;;;3.00;99.90;;;;;;5068306;28;20477;-82
2023/12/19 11:35:32;;;;;;;13.17;11.80;;;3.30;99.90;;;;;;5070797;28;20475;-82
2023/12/19 11:38:25;;;;;;;13.77;12.37;;;3.30;99.90;;;;;;5059082;28;20554;-82
2023/12/19 11:40:53;;;;;;;12.53;11.13;;;3.30;99.90;;;;;;5069658;28;20555;-81
2023/12/19 11:43:57;;;;;;;14.30;11.90;;;3.40;99.90;;;;;;5071029;28;20460;-82
2023/12/19 11:46:26;;;;;;;19.80;16.07;;;3.60;99.90;;;;;;5062105;28;20525;-80
2023/12/19 11:48:55;;;;;;;17.67;14.83;;;3.70;99.90;;;;;;5070742;28;20446;-80
2023/12/19 11:52:00;;;;;;;13.57;12.20;;;3.80;99.90;;;;;;5077528;28;20621;-80
2023/12/19 11:54:27;;;;;;;12.13;11.00;;;3.90;99.90;;;;;;5064138;28;20466;-80
2023/12/19 11:57:02;;;;;;;22.77;17.43;;;4.00;99.90;;;;;;5058233;28;20499;-81
2023/12/19 11:59:49;;;;;;;15.30;13.00;;;4.10;99.90;;;;;;5075323;28;20736;-81
2023/12/19 12:02:31;;;;;;;12.67;11.37;;;4.20;99.90;;;;;;5066992;28;20999;-83
2023/12/19 12:05:08;;;;;;;10.13;9.13;;;4.40;99.90;;;;;;5074451;28;20850;-82
2023/12/19 12:07:39;;;;;;;10.83;9.43;;;4.50;99.90;;;;;;5065771;28;20526;-82
2023/12/19 12:10:09;;;;;;;8.20;7.43;;;4.50;99.90;;;;;;5068515;28;20502;-81
2023/12/19 12:12:36;;;;;;;8.83;7.97;;;4.60;99.90;;;;;;5064007;28;20629;-81
2023/12/19 12:15:08;;;;;;;9.73;8.10;;;4.70;99.90;;;;;;5061977;28;20517;-81
2023/12/19 12:17:36;;;;;;;7.03;6.40;;;4.80;99.90;;;;;;5071225;28;20541;-81
2023/12/19 12:20:04;;;;;;;9.50;7.90;;;4.80;99.90;;;;;;5073600;28;20569;-82
2023/12/19 12:22:32;;;;;;;8.53;7.63;;;5.00;99.90;;;;;;5077166;28;20892;-82
2023/12/19 12:24:59;;;;;;;8.93;7.27;;;5.00;99.90;;;;;;5073727;28;20473;-81
2023/12/19 12:27:27;;;;;;;7.63;6.47;;;4.90;99.90;;;;;;5069284;28;20876;-81
2023/12/19 12:29:54;;;;;;;8.10;7.30;;;5.00;99.90;;;;;;5065512;28;20466;-82
2023/12/19 12:32:22;;;;;;;7.70;6.17;;;5.00;99.90;;;;;;5084371;28;20855;-82
2023/12/19 12:34:51;;;;;;;5.73;5.20;;;5.10;99.90;;;;;;5073555;28;20522;-81
2023/12/19 12:37:18;;;;;;;6.47;5.87;;;5.30;99.90;;;;;;5070510;28;20532;-82
2023/12/19 12:39:45;;;;;;;7.20;4.97;;;5.40;99.90;;;;;;5065377;28;20447;-81